Time;durP1;ratioP1;P1;durP2;ratioP2;P2;SDS_P1;SDS_P2;PMS_P1;PMS_P2;Temp;Humidity;BMP_temperature;BMP_pressure;BME280_temperature;BME280_humidity;BME280_pressure;Samples;Min_cycle;Max_cycle;Signal;HPM_P1;HPM_P2
2021/10/07 00:00:42;;;;;;;9.32;5.57;;;;;;;6.64;nan;102511.53;4897917;29;20044;-48
2021/10/07 00:03:09;;;;;;;8.93;5.93;;;;;;;6.70;nan;102512.66;4902704;29;20264;-48
2021/10/07 00:05:35;;;;;;;8.70;5.68;;;;;;;6.70;nan;102514.50;4897842;29;20522;-51
2021/10/07 00:08:00;;;;;;;9.18;5.22;;;;;;;6.71;nan;102510.81;4901155;29;20117;-48
2021/10/07 00:10:27;;;;;;;9.60;5.97;;;;;;;6.65;nan;102518.53;4898339;29;20175;-48
2021/10/07 00:12:52;;;;;;;10.52;6.80;;;;;;;6.59;nan;102526.38;4899339;29;20161;-48
2021/10/07 00:15:18;;;;;;;13.27;6.68;;;;;;;6.56;nan;102524.09;4896283;29;20039;-49
2021/10/07 00:17:44;;;;;;;14.80;8.40;;;;;;;6.33;nan;102522.25;4899714;29;20184;-50
2021/10/07 00:20:12;;;;;;;14.85;7.80;;;;;;;6.42;nan;102527.50;4898942;29;20099;-48
2021/10/07 00:22:39;;;;;;;12.63;7.45;;;;;;;6.51;nan;102529.94;4898171;29;20033;-49
2021/10/07 00:25:08;;;;;;;13.75;7.97;;;;;;;6.55;nan;102533.91;4897017;29;20115;-48
2021/10/07 00:27:37;;;;;;;10.27;6.70;;;;;;;6.60;nan;102544.03;4904593;29;20024;-48
2021/10/07 00:30:07;;;;;;;9.50;6.53;;;;;;;6.47;nan;102541.13;4899681;29;20035;-49
2021/10/07 00:32:37;;;;;;;9.57;6.30;;;;;;;6.39;nan;102539.34;4900418;29;20066;-51
2021/10/07 00:35:23;;;;;;;10.02;6.45;;;;;;;6.31;nan;102539.41;4901133;29;20394;-48
2021/10/07 00:40:34;;;;;;;8.43;5.90;;;;;;;6.27;nan;102549.56;4881643;29;20050;-49
2021/10/07 00:42:59;;;;;;;10.70;6.22;;;;;;;6.28;nan;102548.59;4903902;29;20024;-48
2021/10/07 00:45:25;;;;;;;11.50;6.43;;;;;;;6.28;nan;102547.72;4899501;29;20110;-49
2021/10/07 00:47:50;;;;;;;10.80;6.18;;;;;;;6.27;nan;102546.91;4897389;29;20025;-49
2021/10/07 00:50:16;;;;;;;17.42;7.82;;;;;;;6.29;nan;102552.91;4898052;29;20044;-48
2021/10/07 00:52:41;;;;;;;19.02;7.57;;;;;;;6.22;nan;102551.09;4897686;29;20105;-48
2021/10/07 00:55:11;;;;;;;43.72;9.43;;;;;;;6.23;nan;102556.25;4899099;29;20027;-49
2021/10/07 00:57:37;;;;;;;18.20;8.82;;;;;;;6.19;nan;102556.78;4899945;29;20040;-48
2021/10/07 01:00:03;;;;;;;44.72;9.77;;;;;;;6.17;nan;102550.81;4895729;29;20486;-48
2021/10/07 01:02:28;;;;;;;58.00;11.40;;;;;;;6.16;nan;102565.94;4905881;29;20035;-50
2021/10/07 01:04:55;;;;;;;17.88;9.70;;;;;;;6.10;nan;102555.97;4894964;29;20032;-49
2021/10/07 01:07:22;;;;;;;15.73;8.18;;;;;;;6.07;nan;102567.78;4902354;29;20048;-49
2021/10/07 01:09:48;;;;;;;17.27;9.07;;;;;;;6.11;nan;102565.66;4899327;29;20040;-48
2021/10/07 01:12:14;;;;;;;30.02;10.15;;;;;;;6.16;nan;102570.44;4902140;29;20032;-48
2021/10/07 01:14:47;;;;;;;29.05;9.52;;;;;;;6.08;nan;102573.94;4897399;29;20611;-48
2021/10/07 01:17:14;;;;;;;20.73;9.32;;;;;;;6.07;nan;102559.81;4886496;29;20436;-48
2021/10/07 01:19:41;;;;;;;25.50;10.43;;;;;;;6.08;nan;102568.63;4903647;29;20043;-48
2021/10/07 01:22:07;;;;;;;22.85;9.82;;;;;;;6.05;nan;102568.97;4902487;29;20037;-48
2021/10/07 01:24:34;;;;;;;44.25;11.32;;;;;;;6.03;nan;102569.16;4899585;29;20039;-48
2021/10/07 01:27:00;;;;;;;26.73;10.00;;;;;;;6.01;nan;102567.69;4899005;29;20942;-48
2021/10/07 01:29:25;;;;;;;17.63;9.15;;;;;;;5.97;nan;102566.38;4901509;29;20469;-48
2021/10/07 01:31:51;;;;;;;15.25;7.30;;;;;;;5.92;nan;102572.19;4901430;29;20028;-48
2021/10/07 01:34:24;;;;;;;16.40;8.82;;;;;;;5.89;nan;102569.00;4901875;29;20295;-48
2021/10/07 01:36:50;;;;;;;14.80;8.15;;;;;;;5.82;nan;102570.72;4903242;29;20051;-49
2021/10/07 01:39:16;;;;;;;11.27;7.25;;;;;;;5.77;nan;102560.59;4900175;29;20024;-49
2021/10/07 01:41:41;;;;;;;13.55;8.05;;;;;;;5.69;nan;102574.75;4890094;29;20666;-48
2021/10/07 01:44:07;;;;;;;11.70;6.95;;;;;;;5.66;nan;102575.09;4897612;29;20028;-49
2021/10/07 01:46:32;;;;;;;12.43;6.65;;;;;;;5.64;nan;102571.78;4904117;29;20066;-48
2021/10/07 01:48:58;;;;;;;13.40;6.85;;;;;;;5.72;nan;102576.22;4900526;29;20036;-48
2021/10/07 01:51:24;;;;;;;14.10;8.00;;;;;;;5.65;nan;102573.44;4906960;29;20024;-51
2021/10/07 01:53:49;;;;;;;10.70;7.38;;;;;;;5.66;nan;102576.91;4898514;29;20025;-48
2021/10/07 01:56:14;;;;;;;11.50;7.05;;;;;;;5.61;nan;102582.75;4900796;29;20029;-49
2021/10/07 01:58:40;;;;;;;11.48;7.40;;;;;;;5.51;nan;102586.59;4901386;29;20119;-49
2021/10/07 02:01:05;;;;;;;9.63;6.60;;;;;;;5.55;nan;102588.72;4896536;29;20032;-50
2021/10/07 02:03:31;;;;;;;11.15;6.72;;;;;;;5.48;nan;102590.41;4900586;29;20463;-48
2021/10/07 02:05:56;;;;;;;14.57;7.68;;;;;;;5.30;nan;102601.25;4916100;29;20043;-49
2021/10/07 02:08:22;;;;;;;16.05;7.40;;;;;;;5.35;nan;102598.91;4901696;29;20592;-50
2021/10/07 02:10:47;;;;;;;9.82;6.93;;;;;;;5.44;nan;102597.09;4899207;29;20032;-48
2021/10/07 02:13:13;;;;;;;11.88;7.65;;;;;;;5.46;nan;102592.44;4898529;29;20049;-49
2021/10/07 02:15:38;;;;;;;9.40;5.97;;;;;;;5.43;nan;102596.25;4900069;29;20051;-49
2021/10/07 02:18:04;;;;;;;10.23;6.53;;;;;;;5.46;nan;102595.91;4898903;29;20032;-48
2021/10/07 02:20:30;;;;;;;8.75;6.03;;;;;;;5.37;nan;102601.41;4901827;29;20324;-49
2021/10/07 02:22:55;;;;;;;14.02;6.30;;;;;;;5.24;nan;102607.25;4900671;29;20491;-49
2021/10/07 02:25:21;;;;;;;9.38;5.85;;;;;;;5.23;nan;102610.06;4902199;29;20080;-48
2021/10/07 02:27:46;;;;;;;7.63;5.43;;;;;;;5.22;nan;102608.41;4899985;29;20038;-49
2021/10/07 02:30:16;;;;;;;7.28;5.25;;;;;;;5.20;nan;102610.38;4899699;29;20047;-50
2021/10/07 02:32:42;;;;;;;9.57;5.55;;;;;;;5.18;nan;102615.03;4895991;29;20059;-48
2021/10/07 02:35:08;;;;;;;12.65;7.20;;;;;;;5.15;nan;102616.19;4903023;29;20043;-49
2021/10/07 02:37:34;;;;;;;10.45;6.60;;;;;;;5.14;nan;102617.19;4896858;29;20263;-49
2021/10/07 02:40:00;;;;;;;20.10;7.88;;;;;;;5.16;nan;102617.88;4896511;29;20028;-49
2021/10/07 02:42:25;;;;;;;15.65;7.25;;;;;;;5.05;nan;102613.72;4889326;29;20167;-49
2021/10/07 02:44:51;;;;;;;9.68;7.35;;;;;;;5.10;nan;102615.88;4899532;29;20028;-49
2021/10/07 02:47:17;;;;;;;14.77;8.55;;;;;;;5.07;nan;102622.38;4903364;29;20059;-51
2021/10/07 02:49:42;;;;;;;8.88;6.63;;;;;;;5.04;nan;102614.72;4900594;29;20048;-49
2021/10/07 02:52:08;;;;;;;8.75;5.78;;;;;;;4.99;nan;102625.00;4899360;29;20036;-48
2021/10/07 02:54:33;;;;;;;10.40;6.25;;;;;;;4.95;nan;102636.97;4901986;29;20107;-48
2021/10/07 02:56:59;;;;;;;8.63;6.20;;;;;;;4.80;nan;102635.94;4898200;29;20029;-49
2021/10/07 02:59:24;;;;;;;9.93;6.47;;;;;;;4.90;nan;102635.81;4899805;29;20435;-49
2021/10/07 03:01:50;;;;;;;10.95;6.10;;;;;;;4.98;nan;102644.59;4903794;29;20036;-51
2021/10/07 03:04:15;;;;;;;9.35;5.70;;;;;;;5.07;nan;102643.63;4904256;29;20122;-50
2021/10/07 03:06:41;;;;;;;8.43;5.55;;;;;;;5.07;nan;102643.63;4914323;29;20041;-49
2021/10/07 03:09:07;;;;;;;9.27;6.45;;;;;;;5.05;nan;102652.75;4899633;29;20025;-50
2021/10/07 03:11:32;;;;;;;8.50;6.38;;;;;;;4.83;nan;102654.19;4906147;29;20031;-49
2021/10/07 03:13:58;;;;;;;9.98;5.72;;;;;;;4.83;nan;102651.53;4897403;29;21912;-48
2021/10/07 03:16:23;;;;;;;10.20;6.60;;;;;;;4.87;nan;102657.38;4903986;29;20135;-49
2021/10/07 03:18:49;;;;;;;10.95;5.78;;;;;;;4.85;nan;102658.38;4901905;29;20028;-48
2021/10/07 03:21:14;;;;;;;8.45;5.68;;;;;;;4.81;nan;102658.84;4901733;29;20590;-49
2021/10/07 03:23:40;;;;;;;9.07;5.82;;;;;;;4.78;nan;102659.19;4898587;29;20032;-51
2021/10/07 03:26:05;;;;;;;8.65;6.05;;;;;;;4.68;nan;102663.81;4902295;29;20024;-51
2021/10/07 03:28:31;;;;;;;10.57;5.82;;;;;;;4.66;nan;102671.09;4897930;29;20028;-49
2021/10/07 03:30:56;;;;;;;10.70;5.80;;;;;;;4.66;nan;102668.44;4903659;29;20115;-49
2021/10/07 03:33:22;;;;;;;10.35;6.10;;;;;;;4.57;nan;102672.06;4906028;29;20024;-49
2021/10/07 03:35:47;;;;;;;10.40;6.45;;;;;;;4.58;nan;102671.91;4902639;29;20036;-48
2021/10/07 03:38:13;;;;;;;13.77;6.60;;;;;;;4.54;nan;102674.06;4905265;29;20104;-49
2021/10/07 03:40:38;;;;;;;7.28;4.90;;;;;;;4.54;nan;102673.22;4899336;29;20064;-48
2021/10/07 03:43:04;;;;;;;8.63;5.05;;;;;;;4.51;nan;102679.69;4900627;29;20480;-49
2021/10/07 03:45:29;;;;;;;7.32;4.28;;;;;;;4.53;nan;102684.84;4903429;29;20467;-49
2021/10/07 03:47:55;;;;;;;7.75;5.03;;;;;;;4.51;nan;102678.88;4902452;29;20070;-51
2021/10/07 03:50:20;;;;;;;22.63;8.00;;;;;;;4.43;nan;102682.31;4902859;29;20032;-48
2021/10/07 03:52:46;;;;;;;10.75;6.90;;;;;;;4.33;nan;102680.78;4901156;29;20114;-49
2021/10/07 03:55:12;;;;;;;10.05;6.00;;;;;;;4.33;nan;102680.78;4902774;29;20024;-50
2021/10/07 03:57:38;;;;;;;10.25;5.95;;;;;;;4.35;nan;102684.94;4899902;29;20032;-48
2021/10/07 04:00:06;;;;;;;9.85;5.65;;;;;;;4.46;nan;102686.47;4899097;29;20134;-49
2021/10/07 04:02:32;;;;;;;8.82;5.28;;;;;;;4.53;nan;102708.72;4902696;29;20082;-49
2021/10/07 04:04:57;;;;;;;7.68;5.45;;;;;;;4.56;nan;102708.41;4902960;29;20036;-50
2021/10/07 04:07:23;;;;;;;10.15;5.45;;;;;;;4.61;nan;102713.22;4901887;29;20024;-50
2021/10/07 04:09:48;;;;;;;11.00;5.57;;;;;;;4.58;nan;102718.88;4901721;29;20464;-50
2021/10/07 04:12:14;;;;;;;11.65;6.25;;;;;;;4.57;nan;102719.84;4900962;29;20544;-48
2021/10/07 04:14:39;;;;;;;9.23;5.75;;;;;;;4.52;nan;102731.78;4900637;29;20032;-50
2021/10/07 04:17:05;;;;;;;12.55;6.63;;;;;;;4.53;nan;102722.84;4903044;29;20070;-49
2021/10/07 04:19:30;;;;;;;12.50;6.78;;;;;;;4.55;nan;102739.44;4902113;29;20031;-48
2021/10/07 04:21:56;;;;;;;11.77;6.55;;;;;;;4.59;nan;102739.09;4901677;29;20100;-49
2021/10/07 04:24:21;;;;;;;11.32;6.25;;;;;;;4.63;nan;102730.66;4900852;29;20028;-48
2021/10/07 04:26:47;;;;;;;14.10;7.38;;;;;;;4.60;nan;102741.59;4901622;29;20127;-48
2021/10/07 04:29:12;;;;;;;12.43;6.50;;;;;;;4.55;nan;102744.75;4899489;29;20031;-48
2021/10/07 04:31:38;;;;;;;18.10;7.20;;;;;;;4.50;nan;102746.22;4899092;29;20065;-49
2021/10/07 04:34:06;;;;;;;16.02;7.03;;;;;;;4.52;nan;102745.06;4902314;29;20365;-48
2021/10/07 04:36:32;;;;;;;10.60;7.10;;;;;;;4.49;nan;102748.03;4900895;29;20456;-49
2021/10/07 04:38:58;;;;;;;19.55;6.28;;;;;;;4.49;nan;102753.34;4899107;29;21639;-49
2021/10/07 04:41:23;;;;;;;33.60;8.32;;;;;;;4.50;nan;102760.31;4899407;29;20035;-49
2021/10/07 04:43:49;;;;;;;38.63;8.80;;;;;;;4.53;nan;102761.81;4901916;29;20028;-48
2021/10/07 04:46:18;;;;;;;43.25;9.18;;;;;;;4.48;nan;102772.91;4900032;29;20111;-48
2021/10/07 04:48:44;;;;;;;37.65;9.43;;;;;;;4.47;nan;102773.06;4915307;29;20032;-49
2021/10/07 04:51:10;;;;;;;33.80;8.27;;;;;;;4.53;nan;102777.75;4900051;29;20025;-49
2021/10/07 04:53:35;;;;;;;32.33;8.38;;;;;;;4.56;nan;102772.13;4897891;29;20037;-48
2021/10/07 04:56:02;;;;;;;16.58;7.47;;;;;;;4.53;nan;102770.63;4894101;29;20032;-48
2021/10/07 04:58:27;;;;;;;40.08;8.68;;;;;;;4.59;nan;102770.97;4901340;29;20039;-48
2021/10/07 05:00:54;;;;;;;47.88;9.82;;;;;;;4.54;nan;102780.25;4900385;29;20027;-49
2021/10/07 05:03:20;;;;;;;44.63;9.50;;;;;;;4.62;nan;102786.56;4896172;29;20039;-49
2021/10/07 05:05:45;;;;;;;52.53;9.57;;;;;;;4.58;nan;102786.06;4900967;29;20052;-49
2021/10/07 05:08:11;;;;;;;39.35;8.65;;;;;;;4.66;nan;102801.19;4901310;29;20028;-48
2021/10/07 05:10:38;;;;;;;54.42;11.25;;;;;;;4.69;nan;102801.72;4902470;29;20036;-48
2021/10/07 05:13:04;;;;;;;64.88;10.90;;;;;;;4.58;nan;102806.47;4903302;29;20044;-48
2021/10/07 05:15:29;;;;;;;61.92;11.55;;;;;;;4.63;nan;102801.50;4903224;29;20032;-49
2021/10/07 05:17:56;;;;;;;73.25;11.70;;;;;;;4.68;nan;102799.25;4900430;29;20166;-49
2021/10/07 05:20:22;;;;;;;84.88;12.35;;;;;;;4.71;nan;102804.22;4889151;29;20024;-49
2021/10/07 05:22:47;;;;;;;87.00;17.23;;;;;;;4.57;nan;102803.00;4897955;29;20458;-49
2021/10/07 05:25:13;;;;;;;82.68;15.98;;;;;;;4.52;nan;102805.28;4903039;29;20210;-49
2021/10/07 05:27:39;;;;;;;79.50;17.80;;;;;;;4.48;nan;102817.19;4898617;29;20513;-49
2021/10/07 05:30:07;;;;;;;58.42;13.68;;;;;;;4.54;nan;102809.44;4898000;29;20476;-49
2021/10/07 05:32:33;;;;;;;47.10;12.38;;;;;;;4.59;nan;102811.63;4902045;29;20028;-49
2021/10/07 05:34:59;;;;;;;28.90;10.38;;;;;;;4.66;nan;102806.50;4907838;29;20047;-51
2021/10/07 05:37:26;;;;;;;24.13;9.60;;;;;;;4.72;nan;102808.53;4895288;29;20020;-49
2021/10/07 05:39:51;;;;;;;28.15;10.38;;;;;;;4.73;nan;102810.19;4893597;29;20506;-49
2021/10/07 05:42:17;;;;;;;32.22;10.88;;;;;;;4.68;nan;102817.81;4892671;29;20032;-49
2021/10/07 05:44:43;;;;;;;25.52;10.35;;;;;;;4.72;nan;102829.78;4893455;29;20486;-48
2021/10/07 05:47:08;;;;;;;21.65;9.63;;;;;;;4.65;nan;102828.72;4892643;29;20040;-50
2021/10/07 05:49:34;;;;;;;30.85;10.82;;;;;;;4.68;nan;102829.28;4887701;29;20023;-50
2021/10/07 05:52:00;;;;;;;20.63;8.50;;;;;;;4.57;nan;102829.53;4899495;29;20518;-50
2021/10/07 05:54:25;;;;;;;15.90;8.30;;;;;;;4.62;nan;102824.56;4894916;29;20037;-49
2021/10/07 05:56:51;;;;;;;21.35;10.35;;;;;;;4.83;nan;102834.78;4894295;29;20029;-48
2021/10/07 05:59:16;;;;;;;22.20;9.02;;;;;;;4.99;nan;102837.53;4897053;29;20033;-48
2021/10/07 06:01:42;;;;;;;18.20;8.95;;;;;;;5.13;nan;102836.09;4894986;29;20043;-52
2021/10/07 06:04:08;;;;;;;19.00;9.35;;;;;;;5.31;nan;102835.97;4896636;29;20025;-50
2021/10/07 06:07:03;;;;;;;17.27;9.18;;;;;;;5.43;nan;102840.84;4915289;23;20050;-81
2021/10/07 06:09:29;;;;;;;18.52;8.88;;;;;;;5.62;nan;102837.03;4916084;29;20119;-80
2021/10/07 06:11:55;;;;;;;19.48;7.28;;;;;;;5.76;nan;102840.91;4938138;29;20064;-81
2021/10/07 06:14:23;;;;;;;13.43;8.32;;;;;;;5.92;nan;102840.91;4904163;29;20513;-81
2021/10/07 06:16:52;;;;;;;14.02;7.97;;;;;;;6.02;nan;102846.91;4919323;29;20036;-82
2021/10/07 06:19:18;;;;;;;13.93;7.68;;;;;;;6.15;nan;102848.25;4918991;28;20095;-81
2021/10/07 06:21:43;;;;;;;10.88;7.00;;;;;;;6.28;nan;102852.06;4916658;29;20031;-82
2021/10/07 06:24:09;;;;;;;12.15;7.35;;;;;;;6.42;nan;102855.00;4927020;29;20036;-82
2021/10/07 06:26:34;;;;;;;13.18;7.82;;;;;;;6.51;nan;102860.16;4934105;28;20434;-81
2021/10/07 06:29:00;;;;;;;14.00;6.47;;;;;;;6.63;nan;102860.63;4931065;29;20095;-81
2021/10/07 06:31:26;;;;;;;10.38;6.55;;;;;;;6.67;nan;102867.31;4935446;29;20043;-81
2021/10/07 06:33:52;;;;;;;10.10;6.47;;;;;;;6.66;nan;102866.47;4913344;29;20040;-81
2021/10/07 06:36:18;;;;;;;9.77;6.28;;;;;;;6.77;nan;102875.91;4931156;29;20038;-81
2021/10/07 06:38:44;;;;;;;7.80;5.82;;;;;;;6.98;nan;102870.00;4931027;29;20087;-81
2021/10/07 06:41:09;;;;;;;10.93;5.97;;;;;;;7.16;nan;102877.78;4914910;29;20161;-81
2021/10/07 06:43:35;;;;;;;10.35;6.68;;;;;;;7.30;nan;102879.72;4924220;29;20028;-82
2021/10/07 06:46:00;;;;;;;10.13;6.03;;;;;;;7.49;nan;102873.94;4917424;29;20047;-81
2021/10/07 06:48:26;;;;;;;10.15;6.88;;;;;;;7.66;nan;102884.50;4907626;29;20399;-81
2021/10/07 06:50:52;;;;;;;10.40;7.00;;;;;;;7.74;nan;102885.31;4925092;28;20686;-81
2021/10/07 06:53:18;;;;;;;9.82;5.90;;;;;;;7.83;nan;102886.06;4927792;28;20083;-81
2021/10/07 06:55:44;;;;;;;9.50;5.60;;;;;;;7.92;nan;102885.00;4924146;28;20027;-81
2021/10/07 06:58:10;;;;;;;9.32;6.20;;;;;;;8.14;nan;102883.34;4923076;29;20024;-81
2021/10/07 07:00:36;;;;;;;13.02;6.43;;;;;;;8.28;nan;102890.56;4924552;28;20028;-81
2021/10/07 07:03:02;;;;;;;12.88;5.85;;;;;;;8.37;nan;102880.66;4932729;29;20069;-80
2021/10/07 07:05:27;;;;;;;13.13;6.45;;;;;;;8.50;nan;102885.38;4913354;29;20554;-81
2021/10/07 07:07:54;;;;;;;11.18;6.10;;;;;;;8.67;nan;102886.88;4929544;29;20530;-81
2021/10/07 07:10:20;;;;;;;10.70;6.18;;;;;;;8.84;nan;102883.00;4928589;29;20028;-81
2021/10/07 07:12:46;;;;;;;13.32;7.30;;;;;;;9.01;nan;102892.50;4911498;29;20061;-81
2021/10/07 07:15:12;;;;;;;9.88;6.90;;;;;;;9.12;nan;102888.50;4928543;29;20028;-81
2021/10/07 07:17:38;;;;;;;8.25;5.20;;;;;;;9.31;nan;102893.28;4913569;29;20447;-81
2021/10/07 07:20:05;;;;;;;11.25;6.28;;;;;;;9.53;nan;102898.72;4937514;28;20027;-81
2021/10/07 07:22:31;;;;;;;9.52;6.35;;;;;;;9.58;nan;102899.78;4914722;29;20046;-81
2021/10/07 07:24:56;;;;;;;12.18;6.63;;;;;;;9.82;nan;102895.09;4935666;28;20114;-81
2021/10/07 07:27:22;;;;;;;8.88;5.78;;;;;;;9.94;nan;102899.75;4920780;29;20035;-81
2021/10/07 07:29:48;;;;;;;13.05;6.63;;;;;;;10.03;nan;102896.94;4919575;29;20085;-81
2021/10/07 07:32:14;;;;;;;9.98;6.55;;;;;;;10.14;nan;102899.09;4927251;29;20298;-81
2021/10/07 07:34:39;;;;;;;13.45;7.32;;;;;;;10.34;nan;102899.31;4932939;29;20038;-81
2021/10/07 07:37:05;;;;;;;14.15;7.18;;;;;;;10.47;nan;102905.59;4925158;29;20076;-81
2021/10/07 07:39:30;;;;;;;9.77;6.90;;;;;;;10.53;nan;102896.78;4931565;28;20040;-81
2021/10/07 07:41:56;;;;;;;10.38;6.43;;;;;;;10.79;nan;102903.34;4925466;29;20747;-81
2021/10/07 07:44:22;;;;;;;12.57;7.60;;;;;;;10.98;nan;102902.63;4931073;29;20129;-81
2021/10/07 07:46:48;;;;;;;16.48;7.53;;;;;;;11.16;nan;102900.25;4915844;29;20036;-81
2021/10/07 07:49:14;;;;;;;13.52;7.30;;;;;;;11.37;nan;102911.91;4928886;28;20040;-81
2021/10/07 07:51:39;;;;;;;12.30;7.88;;;;;;;11.52;nan;102899.16;4927035;29;20128;-80
2021/10/07 07:54:05;;;;;;;12.88;7.00;;;;;;;11.67;nan;102907.88;4931644;29;20410;-82
2021/10/07 07:56:30;;;;;;;11.20;7.00;;;;;;;11.78;nan;102907.28;4918913;29;20028;-81
2021/10/07 07:58:56;;;;;;;13.30;8.05;;;;;;;11.93;nan;102911.66;4931273;29;20039;-81
2021/10/07 08:01:24;;;;;;;12.77;7.55;;;;;;;12.11;nan;102914.59;4937616;29;20056;-81
2021/10/07 08:03:50;;;;;;;11.88;7.35;;;;;;;12.31;nan;102918.09;4945751;29;20031;-81
2021/10/07 08:06:15;;;;;;;10.75;8.02;;;;;;;12.51;nan;102917.25;4933211;28;20039;-81
2021/10/07 08:08:41;;;;;;;13.07;8.65;;;;;;;12.69;nan;102915.59;4919525;28;20034;-81
2021/10/07 08:11:07;;;;;;;13.38;8.88;;;;;;;12.84;nan;102915.38;4938275;28;20032;-81
2021/10/07 08:13:32;;;;;;;12.25;7.65;;;;;;;12.94;nan;102918.47;4923313;29;20081;-81
2021/10/07 08:15:58;;;;;;;12.68;7.95;;;;;;;13.12;nan;102911.56;4926195;29;20656;-81
2021/10/07 08:18:23;;;;;;;11.70;8.27;;;;;;;13.24;nan;102920.66;4943908;28;20205;-81
2021/10/07 08:20:52;;;;;;;9.70;6.72;;;;;;;13.42;nan;102923.47;4920391;29;20109;-81
2021/10/07 08:23:18;;;;;;;7.72;6.90;;;;;;;13.58;nan;102919.47;4905966;29;20379;-81
2021/10/07 08:25:43;;;;;;;13.02;7.45;;;;;;;13.70;nan;102927.72;4926660;29;20039;-81
2021/10/07 08:28:09;;;;;;;8.27;6.43;;;;;;;13.86;nan;102929.91;4929549;28;20035;-81
2021/10/07 08:30:36;;;;;;;11.40;6.40;;;;;;;14.03;nan;102931.03;4909572;29;20130;-81
2021/10/07 08:33:03;;;;;;;8.15;5.95;;;;;;;14.19;nan;102924.28;4924125;28;20036;-81
2021/10/07 08:35:30;;;;;;;6.93;6.00;;;;;;;14.33;nan;102916.88;4906857;29;20036;-81
2021/10/07 08:37:55;;;;;;;7.70;5.65;;;;;;;14.46;nan;102924.91;4927006;29;20610;-81
2021/10/07 08:40:21;;;;;;;6.75;5.82;;;;;;;14.62;nan;102928.91;4912771;29;20060;-81
2021/10/07 08:42:46;;;;;;;7.95;6.00;;;;;;;14.76;nan;102927.75;4928537;29;20090;-81
2021/10/07 08:45:13;;;;;;;10.27;6.88;;;;;;;14.92;nan;102926.34;4927729;29;20032;-81
2021/10/07 08:47:41;;;;;;;8.00;6.10;;;;;;;15.07;nan;102929.47;4923585;29;20041;-81
2021/10/07 08:50:12;;;;;;;7.43;5.22;;;;;;;15.24;nan;102927.81;4917773;29;20031;-81
2021/10/07 08:52:37;;;;;;;11.05;6.57;;;;;;;15.36;nan;102928.72;4915245;28;20032;-81
2021/10/07 08:55:04;;;;;;;12.82;6.25;;;;;;;15.49;nan;102935.00;4924232;29;20060;-81
2021/10/07 08:57:29;;;;;;;8.88;5.85;;;;;;;15.49;nan;102940.41;4913787;29;20032;-81
2021/10/07 08:59:55;;;;;;;7.80;6.05;;;;;;;15.59;nan;102938.84;4919186;29;20401;-81
2021/10/07 09:02:26;;;;;;;11.10;6.30;;;;;;;15.77;nan;102943.38;4913546;29;20023;-81
2021/10/07 09:04:52;;;;;;;13.00;7.00;;;;;;;15.94;nan;102938.97;4914208;29;20082;-81
2021/10/07 09:07:18;;;;;;;9.20;6.00;;;;;;;16.09;nan;102946.66;4912942;29;20023;-81
2021/10/07 09:09:44;;;;;;;9.57;6.55;;;;;;;16.26;nan;102950.34;4911335;29;20038;-80
2021/10/07 09:12:15;;;;;;;8.30;6.32;;;;;;;16.35;nan;102940.00;4930821;29;20483;-81
2021/10/07 09:14:46;;;;;;;8.68;6.50;;;;;;;16.51;nan;102942.00;4934880;29;20034;-81
2021/10/07 09:17:17;;;;;;;7.93;5.50;;;;;;;16.71;nan;102949.00;4914813;29;20028;-81
2021/10/07 09:19:48;;;;;;;9.13;5.78;;;;;;;16.83;nan;102947.09;4928536;28;20046;-81
2021/10/07 09:22:23;;;;;;;7.13;5.38;;;;;;;16.95;nan;102945.22;4919510;29;20028;-81
2021/10/07 09:24:57;;;;;;;8.23;4.95;;;;;;;17.05;nan;102950.84;4924786;29;20058;-81
2021/10/07 09:27:27;;;;;;;7.70;4.97;;;;;;;17.02;nan;102945.91;4921926;29;20031;-81
2021/10/07 09:29:58;;;;;;;7.85;5.32;;;;;;;16.96;nan;102952.28;4915386;29;20031;-81
2021/10/07 09:32:28;;;;;;;6.65;5.05;;;;;;;17.00;nan;102947.19;4931414;29;20391;-81
2021/10/07 09:34:56;;;;;;;9.02;5.93;;;;;;;17.19;nan;102946.81;4931791;29;20708;-82
2021/10/07 09:37:35;;;;;;;8.77;5.03;;;;;;;17.42;nan;102950.53;4931435;29;20111;-81
2021/10/07 09:40:13;;;;;;;7.55;4.78;;;;;;;17.64;nan;102959.66;4932423;28;20028;-82
2021/10/07 09:42:48;;;;;;;10.63;5.45;;;;;;;17.76;nan;102949.59;4916699;29;20478;-82
2021/10/07 09:45:27;;;;;;;;;;;;;;;17.91;nan;102953.66;4914488;29;20042;-82
2021/10/07 09:47:58;;;;;;;9.15;5.70;;;;;;;18.03;nan;102947.09;4933055;28;19940;-82
2021/10/07 09:50:30;;;;;;;8.82;5.38;;;;;;;18.18;nan;102945.72;4944005;29;20031;-81
2021/10/07 09:53:06;;;;;;;7.28;5.10;;;;;;;18.29;nan;102945.63;4922012;29;20059;-81
2021/10/07 09:55:36;;;;;;;6.82;5.20;;;;;;;18.37;nan;102945.25;4918906;29;20502;-82
2021/10/07 09:58:13;;;;;;;5.63;4.57;;;;;;;18.52;nan;102947.38;4909889;29;20043;-82
2021/10/07 10:00:43;;;;;;;7.78;5.30;;;;;;;18.65;nan;102943.50;4928069;29;20062;-81
2021/10/07 10:03:10;;;;;;;5.85;4.10;;;;;;;18.71;nan;102950.69;4930087;29;20058;-82
2021/10/07 10:05:38;;;;;;;8.07;4.55;;;;;;;18.83;nan;102951.38;4912452;29;20091;-82
2021/10/07 10:08:05;;;;;;;6.85;4.47;;;;;;;18.91;nan;102950.97;4921868;29;20059;-82
2021/10/07 10:10:31;;;;;;;5.88;4.25;;;;;;;19.05;nan;102943.28;4902760;29;20024;-82
2021/10/07 10:12:56;;;;;;;6.32;3.67;;;;;;;19.15;nan;102945.28;4921559;29;20076;-82
2021/10/07 10:15:22;;;;;;;6.93;4.45;;;;;;;19.24;nan;102944.63;4920274;29;20083;-82
2021/10/07 10:17:48;;;;;;;4.53;3.30;;;;;;;19.30;nan;102937.34;4913190;29;20028;-82
2021/10/07 10:20:20;;;;;;;4.80;3.88;;;;;;;19.33;nan;102945.78;4902451;29;20020;-82
2021/10/07 10:22:49;;;;;;;4.97;3.33;;;;;;;19.46;nan;102941.88;4918423;29;20024;-81
2021/10/07 10:25:14;;;;;;;5.18;3.47;;;;;;;19.47;nan;102940.78;4918046;29;20031;-82
2021/10/07 10:27:56;;;;;;;5.35;3.70;;;;;;;19.58;nan;102942.59;4916747;29;20020;-82
2021/10/07 10:30:43;;;;;;;5.82;3.08;;;;;;;19.73;nan;102949.25;4921114;29;20459;-82
2021/10/07 10:33:27;;;;;;;3.38;2.38;;;;;;;19.78;nan;102952.03;4925844;29;20032;-82
2021/10/07 10:35:53;;;;;;;5.70;2.58;;;;;;;19.83;nan;102952.91;4925002;29;20410;-82
2021/10/07 10:38:19;;;;;;;4.70;3.20;;;;;;;20.02;nan;102957.97;4926210;28;20055;-82
2021/10/07 10:40:45;;;;;;;6.82;3.25;;;;;;;20.15;nan;102952.94;4917806;28;20035;-82
2021/10/07 10:43:19;;;;;;;5.15;3.00;;;;;;;19.94;nan;102964.72;4916990;29;20028;-82
2021/10/07 10:46:08;;;;;;;4.38;3.60;;;;;;;19.77;nan;102961.28;4915210;29;20115;-82
2021/10/07 10:48:45;;;;;;;6.65;3.92;;;;;;;20.07;nan;102967.00;4898120;29;20032;-82
2021/10/07 10:51:16;;;;;;;4.03;3.05;;;;;;;20.22;nan;102966.31;4920090;29;20480;-82
2021/10/07 10:54:03;;;;;;;4.85;3.20;;;;;;;20.29;nan;102960.66;4913390;29;20032;-82
2021/10/07 10:56:34;;;;;;;6.22;2.90;;;;;;;20.45;nan;102959.72;4898799;29;20035;-82
2021/10/07 10:59:23;;;;;;;2.58;2.30;;;;;;;20.48;nan;102959.22;4913763;29;20027;-82
2021/10/07 11:02:16;;;;;;;3.95;2.53;;;;;;;20.70;nan;102962.66;4917788;29;20028;-82
2021/10/07 11:04:50;;;;;;;5.65;3.03;;;;;;;20.98;nan;102958.69;4916286;29;20031;-82
2021/10/07 11:07:33;;;;;;;2.95;2.65;;;;;;;21.22;nan;102959.09;4901626;29;20099;-81
2021/10/07 11:10:00;;;;;;;3.70;2.50;;;;;;;21.41;nan;102954.03;4909993;29;20301;-82
2021/10/07 11:12:42;;;;;;;3.50;2.60;;;;;;;21.69;nan;102959.00;4919423;29;20036;-82
2021/10/07 11:15:09;;;;;;;4.53;2.40;;;;;;;22.07;nan;102967.00;4907428;29;20047;-82
2021/10/07 11:17:38;;;;;;;4.72;2.67;;;;;;;22.32;nan;102964.28;4916841;29;20028;-82
2021/10/07 11:20:04;;;;;;;3.47;2.22;;;;;;;22.52;nan;102956.06;4920832;29;20038;-82
2021/10/07 11:22:30;;;;;;;2.97;2.10;;;;;;;22.93;nan;102958.75;4903892;29;20031;-82
2021/10/07 11:24:58;;;;;;;6.40;2.28;;;;;;;24.09;nan;102951.84;4907091;29;20600;-82
2021/10/07 11:27:41;;;;;;;2.92;1.90;;;;;;;26.71;nan;102943.41;4908629;29;20098;-82
2021/10/07 11:30:14;;;;;;;4.28;2.97;;;;;;;28.83;nan;102935.94;4928140;29;20158;-82
2021/10/07 11:32:40;;;;;;;3.88;1.95;;;;;;;30.01;nan;102937.53;4902200;29;20060;-82
2021/10/07 11:35:09;;;;;;;7.38;2.30;;;;;;;30.30;nan;102936.84;4903783;29;20027;-82
2021/10/07 11:37:53;;;;;;;3.35;1.48;;;;;;;31.74;nan;102931.13;4909724;29;20028;-80
2021/10/07 11:40:20;;;;;;;2.77;1.60;;;;;;;30.14;nan;102935.75;4919428;29;20040;-80
2021/10/07 11:42:47;;;;;;;4.43;2.40;;;;;;;27.81;nan;102941.34;4924789;29;20699;-80
2021/10/07 11:45:25;;;;;;;5.90;2.65;;;;;;;26.22;nan;102939.38;4901747;29;20036;-80